createdAt,value
2022-11-13T00:06:44.478Z,225.37
2022-11-13T00:17:07.938Z,224.47
2022-11-13T00:27:31.847Z,228.20
2022-11-13T00:37:56.168Z,228.83
2022-11-13T00:48:18.362Z,232.33
2022-11-13T00:58:41.454Z,229.23
2022-11-13T01:09:03.639Z,225.80
2022-11-13T01:19:26.843Z,223.23
2022-11-13T01:29:49.042Z,232.10
2022-11-13T01:40:15.025Z,227.10
2022-11-13T01:50:37.229Z,226.60
2022-11-13T02:01:00.434Z,231.20
2022-11-13T02:11:22.798Z,220.07
2022-11-13T02:21:54.870Z,223.87
2022-11-13T02:32:18.084Z,226.27
2022-11-13T02:42:40.334Z,236.37
2022-11-13T02:53:04.136Z,227.10
2022-11-13T03:03:56.045Z,222.97
2022-11-13T03:14:09.060Z,233.30
2022-11-13T03:24:31.087Z,227.03
2022-11-13T03:34:54.220Z,226.37
2022-11-13T03:45:16.452Z,224.43
2022-11-13T03:55:40.118Z,223.73
2022-11-13T04:06:02.224Z,232.20
2022-11-13T04:16:25.676Z,224.10
2022-11-13T04:26:47.737Z,223.50
2022-11-13T04:37:11.235Z,222.50
2022-11-13T04:47:32.998Z,220.07
2022-11-13T04:57:56.472Z,226.40
2022-11-13T05:08:18.610Z,229.00
2022-11-13T05:18:42.610Z,234.07
2022-11-13T05:29:04.835Z,225.73
2022-11-13T05:39:27.945Z,225.30
2022-11-13T05:49:50.057Z,229.47
2022-11-13T06:00:15.340Z,230.93
2022-11-13T06:10:37.336Z,229.23
2022-11-13T06:21:06.017Z,236.37
2022-11-13T06:31:30.767Z,222.50
2022-11-13T06:41:53.835Z,209.17
2022-11-13T06:52:15.830Z,199.43
2022-11-13T07:02:39.038Z,208.37
2022-11-13T07:13:01.303Z,207.40
2022-11-13T07:23:24.822Z,204.77
2022-11-13T07:33:49.624Z,207.50
2022-11-13T07:44:21.918Z,208.57
2022-11-13T07:54:55.218Z,206.33
2022-11-13T08:05:19.212Z,206.47
2022-11-13T08:15:41.182Z,199.87
2022-11-13T08:26:07.533Z,210.07
2022-11-13T08:36:29.402Z,201.40
2022-11-13T08:46:52.694Z,205.40
2022-11-13T08:57:14.557Z,223.03
2022-11-13T09:07:38.841Z,207.07
2022-11-13T09:18:01.962Z,206.37
2022-11-13T09:28:25.585Z,210.87
2022-11-13T09:38:48.779Z,214.87
2022-11-13T09:49:18.977Z,217.87
2022-11-13T09:59:48.681Z,214.97
2022-11-13T10:10:32.486Z,207.20
2022-11-13T10:20:59.170Z,210.23
2022-11-13T10:31:22.538Z,223.23
2022-11-13T10:41:49.428Z,222.20
2022-11-13T10:52:22.697Z,219.20
2022-11-13T11:02:51.035Z,221.77
2022-11-13T11:13:23.935Z,220.40
2022-11-13T11:23:55.820Z,229.37
2022-11-13T11:34:23.893Z,236.03
2022-11-13T11:45:06.060Z,223.53
2022-11-13T11:56:07.616Z,235.47
2022-11-13T12:06:44.370Z,226.83
2022-11-13T12:17:27.992Z,233.07
2022-11-13T12:27:59.040Z,236.10
2022-11-13T12:38:34.266Z,232.10
2022-11-13T12:48:56.383Z,236.53
2022-11-13T12:59:35.891Z,239.17
2022-11-13T13:10:11.273Z,244.30
2022-11-13T13:20:38.508Z,240.93
2022-11-13T13:31:10.998Z,232.03
2022-11-13T13:42:09.519Z,243.97
2022-11-13T13:52:34.781Z,231.53
2022-11-13T14:02:58.109Z,237.83
2022-11-13T14:13:27.343Z,237.17
2022-11-13T14:23:53.513Z,230.33
2022-11-13T14:34:21.034Z,237.37
2022-11-13T14:44:44.532Z,235.17
2022-11-13T14:55:15.101Z,236.93
2022-11-13T15:05:39.368Z,237.00
2022-11-13T15:16:01.978Z,222.67
2022-11-13T15:26:25.635Z,238.60
2022-11-13T15:36:47.586Z,227.57
2022-11-13T15:47:29.703Z,223.67
2022-11-13T15:57:52.246Z,226.57
2022-11-13T16:08:17.189Z,225.33
2022-11-13T16:18:42.387Z,221.13
2022-11-13T16:29:19.903Z,211.90
2022-11-13T16:39:42.068Z,228.93
2022-11-13T16:50:13.744Z,224.03
2022-11-13T17:00:35.987Z,228.10
2022-11-13T17:11:02.384Z,223.30
2022-11-13T17:21:27.186Z,227.10
2022-11-13T17:31:50.703Z,232.87
2022-11-13T17:42:12.857Z,234.47
2022-11-13T17:52:35.907Z,237.53
2022-11-13T18:02:57.910Z,235.97
2022-11-13T18:13:21.335Z,244.63
2022-11-13T18:23:43.552Z,235.37
2022-11-13T18:34:09.983Z,240.43
2022-11-13T18:44:31.869Z,244.53
2022-11-13T18:54:56.393Z,237.40
2022-11-13T19:05:18.454Z,235.10
2022-11-13T19:15:41.894Z,238.80
2022-11-13T19:26:04.329Z,237.33
2022-11-13T19:36:30.017Z,241.30
2022-11-13T19:46:53.512Z,250.50
2022-11-13T19:57:17.075Z,249.37
2022-11-13T20:07:39.295Z,252.37
2022-11-13T20:18:02.499Z,249.73
2022-11-13T20:28:25.158Z,257.87
2022-11-13T20:38:53.585Z,266.37
2022-11-13T20:49:15.967Z,263.27
2022-11-13T20:59:39.303Z,262.20
2022-11-13T21:10:02.011Z,260.80
2022-11-13T21:20:25.472Z,240.70
2022-11-13T21:30:47.351Z,240.87
2022-11-13T21:41:24.952Z,228.00
2022-11-13T21:51:47.491Z,239.50
2022-11-13T22:02:13.055Z,237.13
2022-11-13T22:12:34.997Z,229.33
2022-11-13T22:22:58.542Z,228.30
2022-11-13T22:33:20.541Z,222.97
2022-11-13T22:43:44.467Z,228.80
2022-11-13T22:54:09.133Z,228.17
2022-11-13T23:04:32.621Z,214.43
2022-11-13T23:14:54.811Z,216.30
2022-11-13T23:25:17.944Z,216.13
2022-11-13T23:35:39.991Z,204.77
2022-11-13T23:46:03.453Z,213.40
2022-11-13T23:56:25.552Z,209.03
